sensor_id;sensor_type;location;lat;lon;timestamp;temperature;humidity
72952;HTU21D;61102;51.956;5.878;2022-12-18T00:01:33;4.20;47.24
72952;HTU21D;61102;51.956;5.878;2022-12-18T00:03:59;4.17;47.26
72952;HTU21D;61102;51.956;5.878;2022-12-18T00:06:26;4.15;47.25
72952;HTU21D;61102;51.956;5.878;2022-12-18T00:08:52;4.13;47.23
72952;HTU21D;61102;51.956;5.878;2022-12-18T00:11:20;4.10;47.26
72952;HTU21D;61102;51.956;5.878;2022-12-18T00:13:46;4.07;47.29
72952;HTU21D;61102;51.956;5.878;2022-12-18T00:16:13;4.03;47.31
72952;HTU21D;61102;51.956;5.878;2022-12-18T00:18:40;4.03;47.31
72952;HTU21D;61102;51.956;5.878;2022-12-18T00:21:07;4.01;47.31
72952;HTU21D;61102;51.956;5.878;2022-12-18T00:23:34;4.02;47.28
72952;HTU21D;61102;51.956;5.878;2022-12-18T00:26:00;4.01;47.23
72952;HTU21D;61102;51.956;5.878;2022-12-18T00:28:26;3.99;47.22
72952;HTU21D;61102;51.956;5.878;2022-12-18T00:31:09;3.93;47.25
72952;HTU21D;61102;51.956;5.878;2022-12-18T00:33:35;3.90;47.29
72952;HTU21D;61102;51.956;5.878;2022-12-18T00:36:02;3.86;47.33
72952;HTU21D;61102;51.956;5.878;2022-12-18T00:38:28;3.83;47.34
72952;HTU21D;61102;51.956;5.878;2022-12-18T00:40:54;3.80;47.35
72952;HTU21D;61102;51.956;5.878;2022-12-18T00:43:20;3.78;47.33
72952;HTU21D;61102;51.956;5.878;2022-12-18T00:45:46;3.76;47.36
72952;HTU21D;61102;51.956;5.878;2022-12-18T00:48:11;3.72;47.44
72952;HTU21D;61102;51.956;5.878;2022-12-18T00:50:37;3.70;47.44
72952;HTU21D;61102;51.956;5.878;2022-12-18T00:53:03;3.69;47.43
72952;HTU21D;61102;51.956;5.878;2022-12-18T00:55:29;3.65;47.38
72952;HTU21D;61102;51.956;5.878;2022-12-18T00:57:56;3.65;47.34
72952;HTU21D;61102;51.956;5.878;2022-12-18T01:00:22;3.64;47.34
72952;HTU21D;61102;51.956;5.878;2022-12-18T01:02:47;3.64;47.36
72952;HTU21D;61102;51.956;5.878;2022-12-18T01:05:14;3.61;47.37
72952;HTU21D;61102;51.956;5.878;2022-12-18T01:07:40;3.58;47.37
72952;HTU21D;61102;51.956;5.878;2022-12-18T01:10:06;3.56;47.35
72952;HTU21D;61102;51.956;5.878;2022-12-18T01:12:34;3.53;47.38
72952;HTU21D;61102;51.956;5.878;2022-12-18T01:15:00;3.50;47.37
72952;HTU21D;61102;51.956;5.878;2022-12-18T01:17:26;3.48;47.39
72952;HTU21D;61102;51.956;5.878;2022-12-18T01:19:52;3.48;47.39
72952;HTU21D;61102;51.956;5.878;2022-12-18T01:22:18;3.48;47.38
72952;HTU21D;61102;51.956;5.878;2022-12-18T01:24:44;3.47;47.36
72952;HTU21D;61102;51.956;5.878;2022-12-18T01:27:10;3.47;47.36
72952;HTU21D;61102;51.956;5.878;2022-12-18T01:29:35;3.46;47.34
72952;HTU21D;61102;51.956;5.878;2022-12-18T01:32:01;3.42;47.37
72952;HTU21D;61102;51.956;5.878;2022-12-18T01:34:29;3.41;47.42
72952;HTU21D;61102;51.956;5.878;2022-12-18T01:36:55;3.40;47.41
72952;HTU21D;61102;51.956;5.878;2022-12-18T01:39:23;3.40;47.39
72952;HTU21D;61102;51.956;5.878;2022-12-18T01:41:49;3.36;47.34
72952;HTU21D;61102;51.956;5.878;2022-12-18T01:47:19;3.30;47.40
72952;HTU21D;61102;51.956;5.878;2022-12-18T01:49:45;3.29;47.38
72952;HTU21D;61102;51.956;5.878;2022-12-18T01:52:11;3.30;47.38
72952;HTU21D;61102;51.956;5.878;2022-12-18T01:54:37;3.30;47.35
72952;HTU21D;61102;51.956;5.878;2022-12-18T01:57:03;3.28;47.35
72952;HTU21D;61102;51.956;5.878;2022-12-18T01:59:29;3.27;47.34
72952;HTU21D;61102;51.956;5.878;2022-12-18T02:01:55;3.27;47.34
72952;HTU21D;61102;51.956;5.878;2022-12-18T02:04:23;3.26;47.29
72952;HTU21D;61102;51.956;5.878;2022-12-18T02:06:51;3.25;47.25
72952;HTU21D;61102;51.956;5.878;2022-12-18T02:09:20;3.24;47.22
72952;HTU21D;61102;51.956;5.878;2022-12-18T02:11:53;3.21;47.22
72952;HTU21D;61102;51.956;5.878;2022-12-18T02:14:29;3.20;47.22
72952;HTU21D;61102;51.956;5.878;2022-12-18T02:22:06;3.14;47.28
72952;HTU21D;61102;51.956;5.878;2022-12-18T02:27:20;3.08;47.41
72952;HTU21D;61102;51.956;5.878;2022-12-18T02:29:50;3.04;47.46
72952;HTU21D;61102;51.956;5.878;2022-12-18T02:32:18;3.03;47.47
72952;HTU21D;61102;51.956;5.878;2022-12-18T02:34:45;3.06;47.42
72952;HTU21D;61102;51.956;5.878;2022-12-18T02:37:15;3.06;47.42
72952;HTU21D;61102;51.956;5.878;2022-12-18T02:39:42;3.04;47.42
72952;HTU21D;61102;51.956;5.878;2022-12-18T02:42:11;3.03;47.42
72952;HTU21D;61102;51.956;5.878;2022-12-18T02:44:46;3.03;47.43
72952;HTU21D;61102;51.956;5.878;2022-12-18T02:47:16;3.02;47.43
72952;HTU21D;61102;51.956;5.878;2022-12-18T02:57:13;2.98;47.40
72952;HTU21D;61102;51.956;5.878;2022-12-18T02:59:44;2.96;47.36
72952;HTU21D;61102;51.956;5.878;2022-12-18T03:04:42;2.97;47.31
72952;HTU21D;61102;51.956;5.878;2022-12-18T03:07:11;2.96;47.29
72952;HTU21D;61102;51.956;5.878;2022-12-18T03:09:43;2.94;47.29
72952;HTU21D;61102;51.956;5.878;2022-12-18T03:15:23;2.89;47.38
72952;HTU21D;61102;51.956;5.878;2022-12-18T03:18:01;2.87;47.38
72952;HTU21D;61102;51.956;5.878;2022-12-18T03:20:30;2.87;47.38
72952;HTU21D;61102;51.956;5.878;2022-12-18T03:23:00;2.87;47.35
72952;HTU21D;61102;51.956;5.878;2022-12-18T03:25:28;2.87;47.30
72952;HTU21D;61102;51.956;5.878;2022-12-18T03:27:56;2.85;47.25
72952;HTU21D;61102;51.956;5.878;2022-12-18T03:30:24;2.85;47.25
72952;HTU21D;61102;51.956;5.878;2022-12-18T03:35:53;2.79;47.31
72952;HTU21D;61102;51.956;5.878;2022-12-18T03:38:20;2.78;47.28
72952;HTU21D;61102;51.956;5.878;2022-12-18T03:40:53;2.76;47.26
72952;HTU21D;61102;51.956;5.878;2022-12-18T03:43:25;2.78;47.26
72952;HTU21D;61102;51.956;5.878;2022-12-18T03:45:54;2.76;47.26
72952;HTU21D;61102;51.956;5.878;2022-12-18T03:48:28;2.74;47.34
72952;HTU21D;61102;51.956;5.878;2022-12-18T03:51:00;2.72;47.38
72952;HTU21D;61102;51.956;5.878;2022-12-18T03:56:00;2.73;47.36
72952;HTU21D;61102;51.956;5.878;2022-12-18T03:58:32;2.73;47.41
72952;HTU21D;61102;51.956;5.878;2022-12-18T04:01:22;2.72;47.40
72952;HTU21D;61102;51.956;5.878;2022-12-18T04:03:50;2.72;47.41
72952;HTU21D;61102;51.956;5.878;2022-12-18T04:06:18;2.71;47.41
72952;HTU21D;61102;51.956;5.878;2022-12-18T04:08:45;2.71;47.43
72952;HTU21D;61102;51.956;5.878;2022-12-18T04:11:15;2.71;47.43
72952;HTU21D;61102;51.956;5.878;2022-12-18T04:13:43;2.71;47.46
72952;HTU21D;61102;51.956;5.878;2022-12-18T04:16:16;2.70;47.44
72952;HTU21D;61102;51.956;5.878;2022-12-18T04:18:44;2.71;47.44
72952;HTU21D;61102;51.956;5.878;2022-12-18T04:21:10;2.70;47.38
72952;HTU21D;61102;51.956;5.878;2022-12-18T04:23:36;2.70;47.34
72952;HTU21D;61102;51.956;5.878;2022-12-18T04:26:02;2.70;47.37
72952;HTU21D;61102;51.956;5.878;2022-12-18T04:28:58;2.66;47.38
72952;HTU21D;61102;51.956;5.878;2022-12-18T04:31:24;2.64;47.47
72952;HTU21D;61102;51.956;5.878;2022-12-18T04:33:50;2.64;47.43
72952;HTU21D;61102;51.956;5.878;2022-12-18T04:36:16;2.64;47.44
72952;HTU21D;61102;51.956;5.878;2022-12-18T04:38:44;2.64;47.44
72952;HTU21D;61102;51.956;5.878;2022-12-18T04:41:14;2.65;47.52
72952;HTU21D;61102;51.956;5.878;2022-12-18T04:43:41;2.65;47.52
72952;HTU21D;61102;51.956;5.878;2022-12-18T04:46:07;2.66;47.56
72952;HTU21D;61102;51.956;5.878;2022-12-18T04:48:33;2.66;47.57
72952;HTU21D;61102;51.956;5.878;2022-12-18T04:51:01;2.66;47.56
72952;HTU21D;61102;51.956;5.878;2022-12-18T04:53:27;2.66;47.53
72952;HTU21D;61102;51.956;5.878;2022-12-18T04:56:03;2.67;47.50
72952;HTU21D;61102;51.956;5.878;2022-12-18T04:58:29;2.64;47.52
72952;HTU21D;61102;51.956;5.878;2022-12-18T05:00:55;2.62;47.51
72952;HTU21D;61102;51.956;5.878;2022-12-18T05:03:21;2.62;47.47
72952;HTU21D;61102;51.956;5.878;2022-12-18T05:05:50;2.61;47.47
72952;HTU21D;61102;51.956;5.878;2022-12-18T05:08:16;2.61;47.44
72952;HTU21D;61102;51.956;5.878;2022-12-18T05:10:42;2.64;47.44
72952;HTU21D;61102;51.956;5.878;2022-12-18T05:13:08;2.64;47.39
72952;HTU21D;61102;51.956;5.878;2022-12-18T05:15:34;2.64;47.31
72952;HTU21D;61102;51.956;5.878;2022-12-18T05:18:00;2.64;47.25
72952;HTU21D;61102;51.956;5.878;2022-12-18T05:20:26;2.62;47.26
72952;HTU21D;61102;51.956;5.878;2022-12-18T05:22:52;2.61;47.25
72952;HTU21D;61102;51.956;5.878;2022-12-18T05:25:19;2.59;47.25
72952;HTU21D;61102;51.956;5.878;2022-12-18T05:27:44;2.59;47.20
72952;HTU21D;61102;51.956;5.878;2022-12-18T05:30:11;2.57;47.18
72952;HTU21D;61102;51.956;5.878;2022-12-18T05:32:37;2.57;47.18
72952;HTU21D;61102;51.956;5.878;2022-12-18T05:35:03;2.57;47.13
72952;HTU21D;61102;51.956;5.878;2022-12-18T05:37:29;2.56;47.11
72952;HTU21D;61102;51.956;5.878;2022-12-18T05:39:54;2.53;47.10
72952;HTU21D;61102;51.956;5.878;2022-12-18T05:42:20;2.51;47.15
72952;HTU21D;61102;51.956;5.878;2022-12-18T05:44:46;2.52;47.19
72952;HTU21D;61102;51.956;5.878;2022-12-18T05:47:12;2.53;47.22
72952;HTU21D;61102;51.956;5.878;2022-12-18T05:49:37;2.51;47.23
72952;HTU21D;61102;51.956;5.878;2022-12-18T05:52:03;2.53;47.22
72952;HTU21D;61102;51.956;5.878;2022-12-18T05:54:29;2.51;47.23
72952;HTU21D;61102;51.956;5.878;2022-12-18T05:56:56;2.51;47.19
72952;HTU21D;61102;51.956;5.878;2022-12-18T05:59:23;2.51;47.19
72952;HTU21D;61102;51.956;5.878;2022-12-18T06:01:49;2.52;47.18
72952;HTU21D;61102;51.956;5.878;2022-12-18T06:04:14;2.51;47.22
72952;HTU21D;61102;51.956;5.878;2022-12-18T06:06:40;2.52;47.30
72952;HTU21D;61102;51.956;5.878;2022-12-18T06:09:06;2.53;47.39
72952;HTU21D;61102;51.956;5.878;2022-12-18T06:11:34;2.54;47.37
72952;HTU21D;61102;51.956;5.878;2022-12-18T06:14:00;2.56;47.37
72952;HTU21D;61102;51.956;5.878;2022-12-18T06:16:27;2.57;47.46
72952;HTU21D;61102;51.956;5.878;2022-12-18T06:18:53;2.58;47.50
72952;HTU21D;61102;51.956;5.878;2022-12-18T06:21:19;2.61;47.48
72952;HTU21D;61102;51.956;5.878;2022-12-18T06:23:45;2.64;47.48
72952;HTU21D;61102;51.956;5.878;2022-12-18T06:26:11;2.65;47.56
72952;HTU21D;61102;51.956;5.878;2022-12-18T06:28:38;2.67;47.56
72952;HTU21D;61102;51.956;5.878;2022-12-18T06:31:04;2.66;47.57
72952;HTU21D;61102;51.956;5.878;2022-12-18T06:33:30;2.69;47.58
72952;HTU21D;61102;51.956;5.878;2022-12-18T06:36:06;2.69;47.60
72952;HTU21D;61102;51.956;5.878;2022-12-18T06:38:33;2.71;47.54
72952;HTU21D;61102;51.956;5.878;2022-12-18T06:40:59;2.72;47.50
72952;HTU21D;61102;51.956;5.878;2022-12-18T06:43:25;2.75;47.49
72952;HTU21D;61102;51.956;5.878;2022-12-18T06:45:51;2.75;47.49
72952;HTU21D;61102;51.956;5.878;2022-12-18T06:48:18;2.76;47.46
72952;HTU21D;61102;51.956;5.878;2022-12-18T06:50:45;2.80;47.44
72952;HTU21D;61102;51.956;5.878;2022-12-18T06:53:11;2.79;47.41
72952;HTU21D;61102;51.956;5.878;2022-12-18T06:55:37;2.80;47.40
72952;HTU21D;61102;51.956;5.878;2022-12-18T06:58:03;2.79;47.41
72952;HTU21D;61102;51.956;5.878;2022-12-18T07:00:29;2.79;47.44
72952;HTU21D;61102;51.956;5.878;2022-12-18T07:02:54;2.79;47.48
72952;HTU21D;61102;51.956;5.878;2022-12-18T07:05:20;2.78;47.50
72952;HTU21D;61102;51.956;5.878;2022-12-18T07:07:46;2.80;47.48
72952;HTU21D;61102;51.956;5.878;2022-12-18T07:10:12;2.81;47.50
72952;HTU21D;61102;51.956;5.878;2022-12-18T07:12:38;2.83;47.49
72952;HTU21D;61102;51.956;5.878;2022-12-18T07:15:04;2.84;47.47
72952;HTU21D;61102;51.956;5.878;2022-12-18T07:17:30;2.84;47.46
72952;HTU21D;61102;51.956;5.878;2022-12-18T07:19:56;2.86;47.44
72952;HTU21D;61102;51.956;5.878;2022-12-18T07:22:28;2.86;47.42
72952;HTU21D;61102;51.956;5.878;2022-12-18T07:24:53;2.88;47.39
72952;HTU21D;61102;51.956;5.878;2022-12-18T07:27:19;2.89;47.38
72952;HTU21D;61102;51.956;5.878;2022-12-18T07:29:45;2.90;47.37
72952;HTU21D;61102;51.956;5.878;2022-12-18T07:32:11;2.93;47.36
72952;HTU21D;61102;51.956;5.878;2022-12-18T07:34:37;2.94;47.38
72952;HTU21D;61102;51.956;5.878;2022-12-18T07:37:02;2.95;47.38
72952;HTU21D;61102;51.956;5.878;2022-12-18T07:39:28;2.95;47.42
72952;HTU21D;61102;51.956;5.878;2022-12-18T07:41:54;2.95;47.45
72952;HTU21D;61102;51.956;5.878;2022-12-18T07:44:39;2.94;47.50
72952;HTU21D;61102;51.956;5.878;2022-12-18T07:47:05;2.97;47.50
72952;HTU21D;61102;51.956;5.878;2022-12-18T07:49:31;2.99;47.51
72952;HTU21D;61102;51.956;5.878;2022-12-18T07:51:56;3.01;47.56
72952;HTU21D;61102;51.956;5.878;2022-12-18T07:54:23;3.04;47.56
72952;HTU21D;61102;51.956;5.878;2022-12-18T07:56:49;3.08;47.58
72952;HTU21D;61102;51.956;5.878;2022-12-18T07:59:15;3.12;47.63
72952;HTU21D;61102;51.956;5.878;2022-12-18T08:01:41;3.15;47.67
72952;HTU21D;61102;51.956;5.878;2022-12-18T08:04:07;3.18;47.69
72952;HTU21D;61102;51.956;5.878;2022-12-18T08:06:32;3.21;47.69
72952;HTU21D;61102;51.956;5.878;2022-12-18T08:08:58;3.27;47.70
72952;HTU21D;61102;51.956;5.878;2022-12-18T08:11:25;3.30;47.73
72952;HTU21D;61102;51.956;5.878;2022-12-18T08:13:51;3.34;47.76
72952;HTU21D;61102;51.956;5.878;2022-12-18T08:16:20;3.40;47.79
72952;HTU21D;61102;51.956;5.878;2022-12-18T08:18:46;3.45;47.79
72952;HTU21D;61102;51.956;5.878;2022-12-18T08:21:12;3.52;47.83
72952;HTU21D;61102;51.956;5.878;2022-12-18T08:23:39;3.57;47.84
72952;HTU21D;61102;51.956;5.878;2022-12-18T08:26:05;3.62;47.86
72952;HTU21D;61102;51.956;5.878;2022-12-18T08:28:31;3.67;47.87
72952;HTU21D;61102;51.956;5.878;2022-12-18T08:30:57;3.72;47.87
72952;HTU21D;61102;51.956;5.878;2022-12-18T08:33:23;3.77;47.90
72952;HTU21D;61102;51.956;5.878;2022-12-18T08:35:49;3.83;47.91
72952;HTU21D;61102;51.956;5.878;2022-12-18T08:38:15;3.89;47.92
72952;HTU21D;61102;51.956;5.878;2022-12-18T08:40:40;3.94;47.96
72952;HTU21D;61102;51.956;5.878;2022-12-18T08:43:07;4.00;47.99
72952;HTU21D;61102;51.956;5.878;2022-12-18T08:45:53;4.04;48.06
72952;HTU21D;61102;51.956;5.878;2022-12-18T08:48:19;4.10;48.08
72952;HTU21D;61102;51.956;5.878;2022-12-18T08:50:53;4.16;48.09
72952;HTU21D;61102;51.956;5.878;2022-12-18T08:53:19;4.24;48.15
72952;HTU21D;61102;51.956;5.878;2022-12-18T08:55:44;4.29;48.15
72952;HTU21D;61102;51.956;5.878;2022-12-18T08:58:10;4.36;48.15
72952;HTU21D;61102;51.956;5.878;2022-12-18T09:00:36;4.43;48.12
72952;HTU21D;61102;51.956;5.878;2022-12-18T09:03:02;4.50;48.14
72952;HTU21D;61102;51.956;5.878;2022-12-18T09:05:28;4.54;48.08
72952;HTU21D;61102;51.956;5.878;2022-12-18T09:07:53;4.62;48.08
72952;HTU21D;61102;51.956;5.878;2022-12-18T09:10:19;4.71;48.07
72952;HTU21D;61102;51.956;5.878;2022-12-18T09:12:45;4.76;47.89
72952;HTU21D;61102;51.956;5.878;2022-12-18T09:15:11;4.83;47.96
72952;HTU21D;61102;51.956;5.878;2022-12-18T09:17:37;4.92;47.95
72952;HTU21D;61102;51.956;5.878;2022-12-18T09:20:03;4.95;47.79
72952;HTU21D;61102;51.956;5.878;2022-12-18T09:22:29;5.05;47.77
72952;HTU21D;61102;51.956;5.878;2022-12-18T09:24:54;5.10;47.68
72952;HTU21D;61102;51.956;5.878;2022-12-18T09:27:20;5.19;47.73
72952;HTU21D;61102;51.956;5.878;2022-12-18T09:29:46;5.26;47.68
72952;HTU21D;61102;51.956;5.878;2022-12-18T09:32:14;5.32;47.14
72952;HTU21D;61102;51.956;5.878;2022-12-18T09:34:40;5.38;47.12
72952;HTU21D;61102;51.956;5.878;2022-12-18T09:37:05;5.47;47.19
72952;HTU21D;61102;51.956;5.878;2022-12-18T09:39:31;5.54;47.20
72952;HTU21D;61102;51.956;5.878;2022-12-18T09:45:07;5.62;46.74
72952;HTU21D;61102;51.956;5.878;2022-12-18T09:47:37;5.70;46.96
72952;HTU21D;61102;51.956;5.878;2022-12-18T09:50:05;5.78;46.63
72952;HTU21D;61102;51.956;5.878;2022-12-18T09:55:03;5.91;46.38
72952;HTU21D;61102;51.956;5.878;2022-12-18T09:57:30;5.96;46.43
72952;HTU21D;61102;51.956;5.878;2022-12-18T10:00:06;6.00;46.38
72952;HTU21D;61102;51.956;5.878;2022-12-18T10:02:37;6.05;46.28
72952;HTU21D;61102;51.956;5.878;2022-12-18T10:05:13;6.09;46.04
72952;HTU21D;61102;51.956;5.878;2022-12-18T10:07:43;6.13;46.11
72952;HTU21D;61102;51.956;5.878;2022-12-18T10:15:33;6.27;45.85
72952;HTU21D;61102;51.956;5.878;2022-12-18T10:22:57;6.48;45.42
72952;HTU21D;61102;51.956;5.878;2022-12-18T10:25:41;6.52;45.40
72952;HTU21D;61102;51.956;5.878;2022-12-18T10:28:12;6.56;45.29
72952;HTU21D;61102;51.956;5.878;2022-12-18T10:30:39;6.63;45.45
72952;HTU21D;61102;51.956;5.878;2022-12-18T10:33:05;6.68;45.19
72952;HTU21D;61102;51.956;5.878;2022-12-18T10:35:31;6.72;45.01
72952;HTU21D;61102;51.956;5.878;2022-12-18T10:40:26;6.82;44.76
72952;HTU21D;61102;51.956;5.878;2022-12-18T10:43:03;6.88;44.78
72952;HTU21D;61102;51.956;5.878;2022-12-18T10:45:29;6.94;44.44
72952;HTU21D;61102;51.956;5.878;2022-12-18T10:47:54;6.99;44.34
72952;HTU21D;61102;51.956;5.878;2022-12-18T10:52:54;7.08;44.18
72952;HTU21D;61102;51.956;5.878;2022-12-18T10:55:20;7.11;43.83
72952;HTU21D;61102;51.956;5.878;2022-12-18T10:57:46;7.15;43.57
72952;HTU21D;61102;51.956;5.878;2022-12-18T11:00:28;7.20;43.72
72952;HTU21D;61102;51.956;5.878;2022-12-18T11:03:00;7.24;43.83
72952;HTU21D;61102;51.956;5.878;2022-12-18T11:05:30;7.29;43.77
72952;HTU21D;61102;51.956;5.878;2022-12-18T11:07:57;7.33;43.61
72952;HTU21D;61102;51.956;5.878;2022-12-18T11:10:25;7.40;43.77
72952;HTU21D;61102;51.956;5.878;2022-12-18T11:12:52;7.45;43.60
72952;HTU21D;61102;51.956;5.878;2022-12-18T11:15:19;7.48;43.61
72952;HTU21D;61102;51.956;5.878;2022-12-18T11:17:47;7.52;43.46
72952;HTU21D;61102;51.956;5.878;2022-12-18T11:20:28;7.56;43.45
72952;HTU21D;61102;51.956;5.878;2022-12-18T11:22:58;7.59;43.41
72952;HTU21D;61102;51.956;5.878;2022-12-18T11:25:28;7.62;43.10
72952;HTU21D;61102;51.956;5.878;2022-12-18T11:27:55;7.65;42.97
72952;HTU21D;61102;51.956;5.878;2022-12-18T11:30:35;7.70;43.10
72952;HTU21D;61102;51.956;5.878;2022-12-18T11:33:05;7.75;43.10
72952;HTU21D;61102;51.956;5.878;2022-12-18T11:35:44;7.76;42.90
72952;HTU21D;61102;51.956;5.878;2022-12-18T11:38:26;7.81;42.95
72952;HTU21D;61102;51.956;5.878;2022-12-18T11:41:18;7.86;43.06
72952;HTU21D;61102;51.956;5.878;2022-12-18T11:43:58;7.92;42.79
72952;HTU21D;61102;51.956;5.878;2022-12-18T11:46:32;7.97;42.81
72952;HTU21D;61102;51.956;5.878;2022-12-18T11:49:17;8.02;42.77
72952;HTU21D;61102;51.956;5.878;2022-12-18T11:51:48;8.06;42.81
72952;HTU21D;61102;51.956;5.878;2022-12-18T11:54:15;8.11;42.73
72952;HTU21D;61102;51.956;5.878;2022-12-18T11:56:51;8.15;42.66
72952;HTU21D;61102;51.956;5.878;2022-12-18T12:02:29;8.22;42.58
72952;HTU21D;61102;51.956;5.878;2022-12-18T12:07:41;8.30;42.49
72952;HTU21D;61102;51.956;5.878;2022-12-18T12:15:19;8.38;41.94
72952;HTU21D;61102;51.956;5.878;2022-12-18T12:20:22;8.37;41.80
72952;HTU21D;61102;51.956;5.878;2022-12-18T12:22:54;8.39;41.50
72952;HTU21D;61102;51.956;5.878;2022-12-18T12:25:28;8.42;41.52
72952;HTU21D;61102;51.956;5.878;2022-12-18T12:28:01;8.46;41.55
72952;HTU21D;61102;51.956;5.878;2022-12-18T12:33:21;8.48;41.49
72952;HTU21D;61102;51.956;5.878;2022-12-18T12:38:34;8.49;41.13
72952;HTU21D;61102;51.956;5.878;2022-12-18T12:41:05;8.50;40.92
72952;HTU21D;61102;51.956;5.878;2022-12-18T12:43:52;8.48;40.81
72952;HTU21D;61102;51.956;5.878;2022-12-18T12:46:18;8.49;40.94
72952;HTU21D;61102;51.956;5.878;2022-12-18T12:48:55;8.50;40.75
72952;HTU21D;61102;51.956;5.878;2022-12-18T12:53:48;8.49;40.48
72952;HTU21D;61102;51.956;5.878;2022-12-18T12:56:15;8.50;40.52
72952;HTU21D;61102;51.956;5.878;2022-12-18T13:03:52;8.53;40.51
72952;HTU21D;61102;51.956;5.878;2022-12-18T13:06:29;8.55;40.37
72952;HTU21D;61102;51.956;5.878;2022-12-18T13:08:59;8.55;40.35
72952;HTU21D;61102;51.956;5.878;2022-12-18T13:19:42;8.56;40.23
72952;HTU21D;61102;51.956;5.878;2022-12-18T13:22:21;8.57;40.20
72952;HTU21D;61102;51.956;5.878;2022-12-18T13:24:47;8.58;40.16
72952;HTU21D;61102;51.956;5.878;2022-12-18T13:29:58;8.61;40.35
72952;HTU21D;61102;51.956;5.878;2022-12-18T13:32:24;8.64;40.31
72952;HTU21D;61102;51.956;5.878;2022-12-18T13:37:40;8.66;40.21
72952;HTU21D;61102;51.956;5.878;2022-12-18T13:42:52;8.68;40.24
72952;HTU21D;61102;51.956;5.878;2022-12-18T13:45:38;8.67;40.05
72952;HTU21D;61102;51.956;5.878;2022-12-18T13:48:04;8.66;39.91
72952;HTU21D;61102;51.956;5.878;2022-12-18T13:50:31;8.66;39.92
72952;HTU21D;61102;51.956;5.878;2022-12-18T13:52:56;8.66;39.85
72952;HTU21D;61102;51.956;5.878;2022-12-18T13:55:23;8.67;39.76
72952;HTU21D;61102;51.956;5.878;2022-12-18T13:57:48;8.67;39.87
72952;HTU21D;61102;51.956;5.878;2022-12-18T14:00:25;8.71;39.95
72952;HTU21D;61102;51.956;5.878;2022-12-18T14:02:51;8.68;39.99
72952;HTU21D;61102;51.956;5.878;2022-12-18T14:07:52;8.66;39.58
72952;HTU21D;61102;51.956;5.878;2022-12-18T14:10:19;8.65;39.68
72952;HTU21D;61102;51.956;5.878;2022-12-18T14:12:49;8.64;39.50
72952;HTU21D;61102;51.956;5.878;2022-12-18T14:20:34;8.60;39.36
72952;HTU21D;61102;51.956;5.878;2022-12-18T14:23:00;8.61;39.40
72952;HTU21D;61102;51.956;5.878;2022-12-18T14:25:29;8.63;39.31
72952;HTU21D;61102;51.956;5.878;2022-12-18T14:28:07;8.62;38.98
72952;HTU21D;61102;51.956;5.878;2022-12-18T14:30:40;8.61;39.20
72952;HTU21D;61102;51.956;5.878;2022-12-18T14:33:09;8.62;39.14
72952;HTU21D;61102;51.956;5.878;2022-12-18T14:35:40;8.62;38.98
72952;HTU21D;61102;51.956;5.878;2022-12-18T14:40:41;8.62;39.19
72952;HTU21D;61102;51.956;5.878;2022-12-18T14:43:09;8.61;39.04
72952;HTU21D;61102;51.956;5.878;2022-12-18T14:45:41;8.60;38.94
72952;HTU21D;61102;51.956;5.878;2022-12-18T14:50:37;8.57;38.94
72952;HTU21D;61102;51.956;5.878;2022-12-18T14:53:03;8.58;38.91
72952;HTU21D;61102;51.956;5.878;2022-12-18T14:55:29;8.58;39.01
72952;HTU21D;61102;51.956;5.878;2022-12-18T14:57:55;8.56;38.82
72952;HTU21D;61102;51.956;5.878;2022-12-18T15:00:22;8.55;38.87
72952;HTU21D;61102;51.956;5.878;2022-12-18T15:02:49;8.57;39.00
72952;HTU21D;61102;51.956;5.878;2022-12-18T15:05:21;8.56;38.91
72952;HTU21D;61102;51.956;5.878;2022-12-18T15:07:50;8.53;38.99
72952;HTU21D;61102;51.956;5.878;2022-12-18T15:10:20;8.51;38.88
72952;HTU21D;61102;51.956;5.878;2022-12-18T15:12:47;8.50;38.63
72952;HTU21D;61102;51.956;5.878;2022-12-18T15:18:02;8.45;38.80
72952;HTU21D;61102;51.956;5.878;2022-12-18T15:20:30;8.46;38.79
72952;HTU21D;61102;51.956;5.878;2022-12-18T15:22:57;8.44;38.78
72952;HTU21D;61102;51.956;5.878;2022-12-18T15:25:32;8.43;38.63
72952;HTU21D;61102;51.956;5.878;2022-12-18T15:27:58;8.46;38.87
72952;HTU21D;61102;51.956;5.878;2022-12-18T15:30:24;8.47;38.90
72952;HTU21D;61102;51.956;5.878;2022-12-18T15:32:51;8.50;39.07
72952;HTU21D;61102;51.956;5.878;2022-12-18T15:35:21;8.52;39.07
72952;HTU21D;61102;51.956;5.878;2022-12-18T15:37:48;8.52;39.03
72952;HTU21D;61102;51.956;5.878;2022-12-18T15:40:15;8.51;39.05
72952;HTU21D;61102;51.956;5.878;2022-12-18T15:42:41;8.53;38.99
72952;HTU21D;61102;51.956;5.878;2022-12-18T15:45:26;8.48;39.18
72952;HTU21D;61102;51.956;5.878;2022-12-18T15:47:52;8.50;39.17
72952;HTU21D;61102;51.956;5.878;2022-12-18T15:50:18;8.48;38.98
72952;HTU21D;61102;51.956;5.878;2022-12-18T15:52:44;8.48;39.02
72952;HTU21D;61102;51.956;5.878;2022-12-18T15:55:15;8.44;38.61
72952;HTU21D;61102;51.956;5.878;2022-12-18T15:58:00;8.39;38.91
72952;HTU21D;61102;51.956;5.878;2022-12-18T16:00:25;8.37;38.82
72952;HTU21D;61102;51.956;5.878;2022-12-18T16:02:51;8.37;38.77
72952;HTU21D;61102;51.956;5.878;2022-12-18T16:05:18;8.35;38.69
72952;HTU21D;61102;51.956;5.878;2022-12-18T16:07:44;8.36;38.78
72952;HTU21D;61102;51.956;5.878;2022-12-18T16:10:10;8.35;38.70
72952;HTU21D;61102;51.956;5.878;2022-12-18T16:12:36;8.34;38.80
72952;HTU21D;61102;51.956;5.878;2022-12-18T16:15:03;8.33;38.78
72952;HTU21D;61102;51.956;5.878;2022-12-18T16:17:28;8.33;38.75
72952;HTU21D;61102;51.956;5.878;2022-12-18T16:19:54;8.30;38.58
72952;HTU21D;61102;51.956;5.878;2022-12-18T16:22:25;8.29;38.63
72952;HTU21D;61102;51.956;5.878;2022-12-18T16:24:51;8.30;38.59
72952;HTU21D;61102;51.956;5.878;2022-12-18T16:27:17;8.29;38.45
72952;HTU21D;61102;51.956;5.878;2022-12-18T16:29:43;8.29;38.69
72952;HTU21D;61102;51.956;5.878;2022-12-18T16:32:13;8.28;38.70
72952;HTU21D;61102;51.956;5.878;2022-12-18T16:34:39;8.30;38.80
72952;HTU21D;61102;51.956;5.878;2022-12-18T16:37:06;8.30;38.83
72952;HTU21D;61102;51.956;5.878;2022-12-18T16:39:33;8.32;38.88
72952;HTU21D;61102;51.956;5.878;2022-12-18T16:42:00;8.32;38.79
72952;HTU21D;61102;51.956;5.878;2022-12-18T16:44:26;8.32;38.91
72952;HTU21D;61102;51.956;5.878;2022-12-18T16:46:52;8.31;38.89
72952;HTU21D;61102;51.956;5.878;2022-12-18T16:49:18;8.33;38.81
72952;HTU21D;61102;51.956;5.878;2022-12-18T16:51:47;8.29;38.82
72952;HTU21D;61102;51.956;5.878;2022-12-18T16:54:13;8.27;38.80
72952;HTU21D;61102;51.956;5.878;2022-12-18T16:56:38;8.26;38.85
72952;HTU21D;61102;51.956;5.878;2022-12-18T16:59:04;8.26;38.90
72952;HTU21D;61102;51.956;5.878;2022-12-18T17:01:31;8.22;38.48
72952;HTU21D;61102;51.956;5.878;2022-12-18T17:04:01;8.17;38.63
72952;HTU21D;61102;51.956;5.878;2022-12-18T17:06:28;8.15;38.67
72952;HTU21D;61102;51.956;5.878;2022-12-18T17:09:04;8.15;38.81
72952;HTU21D;61102;51.956;5.878;2022-12-18T17:11:31;8.17;38.93
72952;HTU21D;61102;51.956;5.878;2022-12-18T17:13:57;8.18;38.78
72952;HTU21D;61102;51.956;5.878;2022-12-18T17:16:23;8.18;38.88
72952;HTU21D;61102;51.956;5.878;2022-12-18T17:18:49;8.17;38.93
72952;HTU21D;61102;51.956;5.878;2022-12-18T17:21:15;8.17;38.91
72952;HTU21D;61102;51.956;5.878;2022-12-18T17:23:41;8.19;39.01
72952;HTU21D;61102;51.956;5.878;2022-12-18T17:26:08;8.21;38.94